sensor_id;sensor_type;location;lat;lon;timestamp;P1;durP1;ratioP1;P2;durP2;ratioP2
14520;SDS011;7347;50.844;4.490;2023-07-09T08:09:53;7.35;;;4.15;;
14520;SDS011;7347;50.844;4.490;2023-07-09T08:12:20;7.28;;;4.25;;
14520;SDS011;7347;50.844;4.490;2023-07-09T08:14:46;7.90;;;4.63;;
14520;SDS011;7347;50.844;4.490;2023-07-09T08:17:13;6.20;;;4.40;;
14520;SDS011;7347;50.844;4.490;2023-07-09T08:19:44;7.30;;;5.63;;
14520;SDS011;7347;50.844;4.490;2023-07-09T08:22:12;9.45;;;5.50;;
14520;SDS011;7347;50.844;4.490;2023-07-09T08:24:41;12.05;;;6.68;;
14520;SDS011;7347;50.844;4.490;2023-07-09T08:27:08;10.20;;;6.70;;
14520;SDS011;7347;50.844;4.490;2023-07-09T08:29:35;9.50;;;6.68;;
14520;SDS011;7347;50.844;4.490;2023-07-09T08:32:03;9.52;;;6.03;;
14520;SDS011;7347;50.844;4.490;2023-07-09T08:34:30;9.68;;;6.18;;
14520;SDS011;7347;50.844;4.490;2023-07-09T08:36:58;9.82;;;7.03;;
14520;SDS011;7347;50.844;4.490;2023-07-09T08:39:25;8.65;;;6.18;;
14520;SDS011;7347;50.844;4.490;2023-07-09T08:41:54;11.70;;;6.97;;
14520;SDS011;7347;50.844;4.490;2023-07-09T08:44:37;9.23;;;6.55;;
14520;SDS011;7347;50.844;4.490;2023-07-09T08:47:21;11.15;;;6.68;;
14520;SDS011;7347;50.844;4.490;2023-07-09T08:49:54;13.05;;;6.95;;
14520;SDS011;7347;50.844;4.490;2023-07-09T08:52:24;14.25;;;7.57;;
14520;SDS011;7347;50.844;4.490;2023-07-09T08:54:55;12.30;;;7.65;;
14520;SDS011;7347;50.844;4.490;2023-07-09T08:57:25;10.65;;;7.00;;
14520;SDS011;7347;50.844;4.490;2023-07-09T08:59:59;9.57;;;6.75;;
14520;SDS011;7347;50.844;4.490;2023-07-09T09:02:33;11.07;;;7.28;;
14520;SDS011;7347;50.844;4.490;2023-07-09T09:05:03;11.77;;;7.15;;
14520;SDS011;7347;50.844;4.490;2023-07-09T09:07:38;14.02;;;7.55;;
14520;SDS011;7347;50.844;4.490;2023-07-09T09:10:08;14.85;;;8.25;;
14520;SDS011;7347;50.844;4.490;2023-07-09T09:12:45;13.88;;;8.85;;
14520;SDS011;7347;50.844;4.490;2023-07-09T09:15:22;17.40;;;8.93;;
14520;SDS011;7347;50.844;4.490;2023-07-09T09:17:51;14.70;;;8.73;;
14520;SDS011;7347;50.844;4.490;2023-07-09T09:20:22;13.20;;;8.07;;
14520;SDS011;7347;50.844;4.490;2023-07-09T09:22:50;13.27;;;7.90;;
14520;SDS011;7347;50.844;4.490;2023-07-09T09:25:37;12.75;;;7.93;;
14520;SDS011;7347;50.844;4.490;2023-07-09T09:28:08;13.70;;;7.55;;
14520;SDS011;7347;50.844;4.490;2023-07-09T09:30:35;16.17;;;8.52;;
14520;SDS011;7347;50.844;4.490;2023-07-09T09:33:02;11.85;;;7.20;;
14520;SDS011;7347;50.844;4.490;2023-07-09T09:35:33;9.52;;;6.28;;
14520;SDS011;7347;50.844;4.490;2023-07-09T09:38:02;11.90;;;7.32;;
14520;SDS011;7347;50.844;4.490;2023-07-09T09:40:36;12.70;;;7.00;;
14520;SDS011;7347;50.844;4.490;2023-07-09T09:43:04;13.43;;;8.32;;
14520;SDS011;7347;50.844;4.490;2023-07-09T09:45:40;10.50;;;6.90;;
14520;SDS011;7347;50.844;4.490;2023-07-09T09:48:13;12.57;;;7.20;;
14520;SDS011;7347;50.844;4.490;2023-07-09T09:50:42;12.52;;;7.00;;
14520;SDS011;7347;50.844;4.490;2023-07-09T09:53:12;11.48;;;7.68;;
14520;SDS011;7347;50.844;4.490;2023-07-09T09:55:45;12.57;;;7.82;;
14520;SDS011;7347;50.844;4.490;2023-07-09T09:58:15;9.75;;;6.65;;
14520;SDS011;7347;50.844;4.490;2023-07-09T10:00:46;11.88;;;7.25;;
14520;SDS011;7347;50.844;4.490;2023-07-09T10:03:15;12.88;;;7.10;;
14520;SDS011;7347;50.844;4.490;2023-07-09T10:05:43;13.35;;;7.00;;
14520;SDS011;7347;50.844;4.490;2023-07-09T10:08:15;13.05;;;7.95;;
14520;SDS011;7347;50.844;4.490;2023-07-09T10:10:51;10.77;;;6.97;;
14520;SDS011;7347;50.844;4.490;2023-07-09T10:13:26;13.18;;;8.85;;
14520;SDS011;7347;50.844;4.490;2023-07-09T10:16:00;15.43;;;9.30;;
14520;SDS011;7347;50.844;4.490;2023-07-09T10:18:33;13.00;;;7.95;;
14520;SDS011;7347;50.844;4.490;2023-07-09T10:21:14;13.70;;;8.30;;
14520;SDS011;7347;50.844;4.490;2023-07-09T10:23:45;14.13;;;9.55;;
14520;SDS011;7347;50.844;4.490;2023-07-09T10:26:20;17.55;;;11.23;;
14520;SDS011;7347;50.844;4.490;2023-07-09T10:28:56;14.05;;;9.55;;
14520;SDS011;7347;50.844;4.490;2023-07-09T10:31:36;17.23;;;11.10;;
14520;SDS011;7347;50.844;4.490;2023-07-09T10:34:15;17.48;;;9.07;;
14520;SDS011;7347;50.844;4.490;2023-07-09T10:36:56;15.15;;;9.30;;
14520;SDS011;7347;50.844;4.490;2023-07-09T10:39:34;13.70;;;8.60;;
14520;SDS011;7347;50.844;4.490;2023-07-09T10:42:03;11.32;;;7.40;;
14520;SDS011;7347;50.844;4.490;2023-07-09T10:44:35;11.20;;;6.95;;
14520;SDS011;7347;50.844;4.490;2023-07-09T10:47:06;12.80;;;6.97;;
14520;SDS011;7347;50.844;4.490;2023-07-09T10:49:40;10.25;;;6.07;;
14520;SDS011;7347;50.844;4.490;2023-07-09T10:52:11;10.35;;;6.88;;
14520;SDS011;7347;50.844;4.490;2023-07-09T10:54:51;9.88;;;6.38;;
14520;SDS011;7347;50.844;4.490;2023-07-09T10:57:25;8.40;;;6.00;;
14520;SDS011;7347;50.844;4.490;2023-07-09T10:59:57;9.73;;;6.35;;
14520;SDS011;7347;50.844;4.490;2023-07-09T11:02:25;9.35;;;5.55;;
14520;SDS011;7347;50.844;4.490;2023-07-09T11:04:54;7.55;;;4.20;;
14520;SDS011;7347;50.844;4.490;2023-07-09T11:07:25;8.00;;;4.45;;
14520;SDS011;7347;50.844;4.490;2023-07-09T11:09:55;7.13;;;4.20;;
14520;SDS011;7347;50.844;4.490;2023-07-09T11:12:26;6.30;;;4.13;;
14520;SDS011;7347;50.844;4.490;2023-07-09T11:14:59;14.60;;;5.60;;
14520;SDS011;7347;50.844;4.490;2023-07-09T11:17:30;6.47;;;4.00;;
14520;SDS011;7347;50.844;4.490;2023-07-09T11:19:59;4.72;;;3.55;;
14520;SDS011;7347;50.844;4.490;2023-07-09T11:22:35;6.47;;;4.03;;
14520;SDS011;7347;50.844;4.490;2023-07-09T11:25:08;5.80;;;3.80;;
14520;SDS011;7347;50.844;4.490;2023-07-09T11:27:44;4.18;;;3.10;;
14520;SDS011;7347;50.844;4.490;2023-07-09T11:30:20;4.38;;;2.85;;
14520;SDS011;7347;50.844;4.490;2023-07-09T11:32:52;6.03;;;3.60;;
14520;SDS011;7347;50.844;4.490;2023-07-09T11:35:21;6.15;;;3.28;;
14520;SDS011;7347;50.844;4.490;2023-07-09T11:37:49;5.90;;;3.13;;
14520;SDS011;7347;50.844;4.490;2023-07-09T11:40:17;4.70;;;2.85;;
14520;SDS011;7347;50.844;4.490;2023-07-09T11:42:47;4.90;;;3.05;;
14520;SDS011;7347;50.844;4.490;2023-07-09T11:45:16;8.05;;;3.10;;
14520;SDS011;7347;50.844;4.490;2023-07-09T11:47:47;5.53;;;3.47;;
14520;SDS011;7347;50.844;4.490;2023-07-09T11:50:22;7.20;;;3.58;;
14520;SDS011;7347;50.844;4.490;2023-07-09T11:52:52;7.30;;;3.08;;
14520;SDS011;7347;50.844;4.490;2023-07-09T11:55:26;4.70;;;2.75;;
14520;SDS011;7347;50.844;4.490;2023-07-09T11:57:55;2.78;;;2.13;;
14520;SDS011;7347;50.844;4.490;2023-07-09T12:00:24;4.85;;;2.45;;
14520;SDS011;7347;50.844;4.490;2023-07-09T12:02:54;5.45;;;2.85;;
14520;SDS011;7347;50.844;4.490;2023-07-09T12:05:26;4.28;;;1.92;;
14520;SDS011;7347;50.844;4.490;2023-07-09T12:07:55;4.60;;;2.10;;
14520;SDS011;7347;50.844;4.490;2023-07-09T12:10:23;3.25;;;2.10;;
14520;SDS011;7347;50.844;4.490;2023-07-09T12:12:55;3.25;;;2.15;;
14520;SDS011;7347;50.844;4.490;2023-07-09T12:15:25;4.95;;;1.80;;
14520;SDS011;7347;50.844;4.490;2023-07-09T12:17:56;3.83;;;2.17;;
14520;SDS011;7347;50.844;4.490;2023-07-09T12:20:25;3.88;;;2.17;;
14520;SDS011;7347;50.844;4.490;2023-07-09T12:22:56;3.03;;;2.10;;
14520;SDS011;7347;50.844;4.490;2023-07-09T12:25:23;3.85;;;2.30;;
14520;SDS011;7347;50.844;4.490;2023-07-09T12:27:51;3.75;;;2.20;;
14520;SDS011;7347;50.844;4.490;2023-07-09T12:30:18;4.13;;;2.10;;
14520;SDS011;7347;50.844;4.490;2023-07-09T12:32:47;8.45;;;2.60;;
14520;SDS011;7347;50.844;4.490;2023-07-09T12:35:17;5.60;;;3.05;;
14520;SDS011;7347;50.844;4.490;2023-07-09T12:37:45;4.50;;;2.75;;
14520;SDS011;7347;50.844;4.490;2023-07-09T12:40:14;4.43;;;2.78;;
14520;SDS011;7347;50.844;4.490;2023-07-09T12:42:45;6.43;;;3.08;;
14520;SDS011;7347;50.844;4.490;2023-07-09T12:45:14;7.68;;;4.00;;
14520;SDS011;7347;50.844;4.490;2023-07-09T12:47:42;5.35;;;3.47;;
14520;SDS011;7347;50.844;4.490;2023-07-09T12:50:27;7.20;;;3.33;;
14520;SDS011;7347;50.844;4.490;2023-07-09T12:52:59;8.10;;;3.50;;
14520;SDS011;7347;50.844;4.490;2023-07-09T12:55:28;5.20;;;3.55;;
14520;SDS011;7347;50.844;4.490;2023-07-09T12:58:07;8.68;;;3.85;;
14520;SDS011;7347;50.844;4.490;2023-07-09T13:00:36;8.85;;;4.30;;
14520;SDS011;7347;50.844;4.490;2023-07-09T13:03:02;6.03;;;3.53;;
14520;SDS011;7347;50.844;4.490;2023-07-09T13:05:39;10.15;;;4.03;;
14520;SDS011;7347;50.844;4.490;2023-07-09T13:08:17;6.82;;;3.80;;
14520;SDS011;7347;50.844;4.490;2023-07-09T13:10:44;6.70;;;4.10;;
14520;SDS011;7347;50.844;4.490;2023-07-09T13:13:15;9.23;;;3.92;;
14520;SDS011;7347;50.844;4.490;2023-07-09T13:15:43;7.03;;;4.57;;
14520;SDS011;7347;50.844;4.490;2023-07-09T13:18:11;6.25;;;4.38;;
14520;SDS011;7347;50.844;4.490;2023-07-09T13:20:42;5.72;;;3.72;;
14520;SDS011;7347;50.844;4.490;2023-07-09T13:23:13;6.75;;;3.58;;
14520;SDS011;7347;50.844;4.490;2023-07-09T13:25:41;7.30;;;3.72;;
14520;SDS011;7347;50.844;4.490;2023-07-09T13:28:11;7.78;;;3.75;;
14520;SDS011;7347;50.844;4.490;2023-07-09T13:30:42;8.65;;;4.53;;
14520;SDS011;7347;50.844;4.490;2023-07-09T13:33:09;28.35;;;19.45;;
14520;SDS011;7347;50.844;4.490;2023-07-09T13:35:36;8.57;;;4.85;;
14520;SDS011;7347;50.844;4.490;2023-07-09T13:38:09;9.30;;;5.32;;
14520;SDS011;7347;50.844;4.490;2023-07-09T13:40:39;9.60;;;5.25;;
14520;SDS011;7347;50.844;4.490;2023-07-09T13:43:08;9.88;;;4.40;;
14520;SDS011;7347;50.844;4.490;2023-07-09T13:45:38;7.70;;;5.28;;
14520;SDS011;7347;50.844;4.490;2023-07-09T13:48:07;10.48;;;7.85;;
14520;SDS011;7347;50.844;4.490;2023-07-09T13:50:39;6.80;;;3.88;;
14520;SDS011;7347;50.844;4.490;2023-07-09T13:53:10;5.20;;;3.33;;
14520;SDS011;7347;50.844;4.490;2023-07-09T13:55:43;6.18;;;3.55;;
14520;SDS011;7347;50.844;4.490;2023-07-09T13:58:11;9.65;;;3.50;;
14520;SDS011;7347;50.844;4.490;2023-07-09T14:00:39;8.30;;;3.33;;
14520;SDS011;7347;50.844;4.490;2023-07-09T14:03:07;5.72;;;3.80;;
14520;SDS011;7347;50.844;4.490;2023-07-09T14:05:40;7.35;;;3.35;;
14520;SDS011;7347;50.844;4.490;2023-07-09T14:08:07;5.65;;;3.80;;
14520;SDS011;7347;50.844;4.490;2023-07-09T14:10:36;7.30;;;3.50;;
14520;SDS011;7347;50.844;4.490;2023-07-09T14:13:03;7.68;;;3.53;;
14520;SDS011;7347;50.844;4.490;2023-07-09T14:15:30;5.20;;;3.50;;
14520;SDS011;7347;50.844;4.490;2023-07-09T14:17:57;8.38;;;4.80;;
14520;SDS011;7347;50.844;4.490;2023-07-09T14:20:24;5.90;;;3.55;;
14520;SDS011;7347;50.844;4.490;2023-07-09T14:22:52;7.38;;;3.50;;
14520;SDS011;7347;50.844;4.490;2023-07-09T14:25:20;7.55;;;3.65;;
14520;SDS011;7347;50.844;4.490;2023-07-09T14:27:49;7.28;;;3.28;;
14520;SDS011;7347;50.844;4.490;2023-07-09T14:30:18;6.00;;;3.42;;
14520;SDS011;7347;50.844;4.490;2023-07-09T14:32:49;7.15;;;3.70;;
14520;SDS011;7347;50.844;4.490;2023-07-09T14:35:18;7.45;;;3.97;;
14520;SDS011;7347;50.844;4.490;2023-07-09T14:37:47;5.43;;;3.53;;
14520;SDS011;7347;50.844;4.490;2023-07-09T14:40:16;6.97;;;3.70;;
14520;SDS011;7347;50.844;4.490;2023-07-09T14:42:45;7.50;;;3.45;;
14520;SDS011;7347;50.844;4.490;2023-07-09T14:45:18;5.07;;;2.95;;
14520;SDS011;7347;50.844;4.490;2023-07-09T14:47:47;4.10;;;2.42;;
14520;SDS011;7347;50.844;4.490;2023-07-09T14:50:14;4.78;;;2.72;;
14520;SDS011;7347;50.844;4.490;2023-07-09T14:52:41;4.22;;;2.42;;
14520;SDS011;7347;50.844;4.490;2023-07-09T14:55:13;5.90;;;2.38;;
14520;SDS011;7347;50.844;4.490;2023-07-09T14:57:41;3.90;;;2.55;;
14520;SDS011;7347;50.844;4.490;2023-07-09T15:00:12;4.40;;;2.72;;
14520;SDS011;7347;50.844;4.490;2023-07-09T15:02:41;4.25;;;2.65;;
14520;SDS011;7347;50.844;4.490;2023-07-09T15:05:17;4.72;;;2.60;;
14520;SDS011;7347;50.844;4.490;2023-07-09T15:07:46;4.72;;;2.55;;
14520;SDS011;7347;50.844;4.490;2023-07-09T15:10:13;5.43;;;2.97;;
14520;SDS011;7347;50.844;4.490;2023-07-09T15:12:41;6.55;;;2.55;;
14520;SDS011;7347;50.844;4.490;2023-07-09T15:15:17;4.97;;;2.90;;
14520;SDS011;7347;50.844;4.490;2023-07-09T15:17:48;4.63;;;2.90;;
14520;SDS011;7347;50.844;4.490;2023-07-09T15:20:16;4.78;;;2.88;;
14520;SDS011;7347;50.844;4.490;2023-07-09T15:22:45;4.68;;;3.10;;
14520;SDS011;7347;50.844;4.490;2023-07-09T15:25:13;7.22;;;3.47;;
14520;SDS011;7347;50.844;4.490;2023-07-09T15:27:41;4.40;;;2.85;;
14520;SDS011;7347;50.844;4.490;2023-07-09T15:30:15;4.22;;;2.70;;
14520;SDS011;7347;50.844;4.490;2023-07-09T15:32:44;5.15;;;2.97;;
14520;SDS011;7347;50.844;4.490;2023-07-09T15:35:14;3.25;;;2.35;;
14520;SDS011;7347;50.844;4.490;2023-07-09T15:37:41;6.78;;;2.60;;
14520;SDS011;7347;50.844;4.490;2023-07-09T15:40:16;3.45;;;2.67;;
14520;SDS011;7347;50.844;4.490;2023-07-09T15:42:46;5.05;;;2.55;;
14520;SDS011;7347;50.844;4.490;2023-07-09T15:45:14;3.85;;;2.20;;
14520;SDS011;7347;50.844;4.490;2023-07-09T15:47:41;6.82;;;2.25;;
14520;SDS011;7347;50.844;4.490;2023-07-09T15:50:14;3.90;;;2.55;;
14520;SDS011;7347;50.844;4.490;2023-07-09T15:52:43;6.15;;;3.28;;
14520;SDS011;7347;50.844;4.490;2023-07-09T15:55:12;6.88;;;2.60;;
14520;SDS011;7347;50.844;4.490;2023-07-09T15:57:41;3.40;;;2.25;;
14520;SDS011;7347;50.844;4.490;2023-07-09T16:00:13;4.32;;;1.98;;
14520;SDS011;7347;50.844;4.490;2023-07-09T16:02:42;2.97;;;2.00;;
14520;SDS011;7347;50.844;4.490;2023-07-09T16:05:11;4.70;;;2.38;;
14520;SDS011;7347;50.844;4.490;2023-07-09T16:07:46;4.45;;;2.22;;
14520;SDS011;7347;50.844;4.490;2023-07-09T16:10:13;5.07;;;2.20;;
14520;SDS011;7347;50.844;4.490;2023-07-09T16:12:40;3.65;;;2.15;;
14520;SDS011;7347;50.844;4.490;2023-07-09T16:15:10;3.60;;;2.10;;
14520;SDS011;7347;50.844;4.490;2023-07-09T16:17:39;4.13;;;2.17;;
14520;SDS011;7347;50.844;4.490;2023-07-09T16:20:07;4.35;;;1.95;;
14520;SDS011;7347;50.844;4.490;2023-07-09T16:22:36;4.00;;;2.35;;
14520;SDS011;7347;50.844;4.490;2023-07-09T16:25:11;4.47;;;2.85;;
14520;SDS011;7347;50.844;4.490;2023-07-09T16:27:41;4.60;;;1.92;;
14520;SDS011;7347;50.844;4.490;2023-07-09T16:30:11;3.65;;;1.83;;
14520;SDS011;7347;50.844;4.490;2023-07-09T16:32:40;3.15;;;2.00;;
14520;SDS011;7347;50.844;4.490;2023-07-09T16:35:08;3.70;;;2.25;;
14520;SDS011;7347;50.844;4.490;2023-07-09T16:37:38;4.53;;;1.60;;
14520;SDS011;7347;50.844;4.490;2023-07-09T16:40:10;3.75;;;1.70;;
14520;SDS011;7347;50.844;4.490;2023-07-09T16:42:40;2.72;;;1.50;;
14520;SDS011;7347;50.844;4.490;2023-07-09T16:45:07;6.88;;;2.05;;
14520;SDS011;7347;50.844;4.490;2023-07-09T16:47:35;4.40;;;2.42;;
14520;SDS011;7347;50.844;4.490;2023-07-09T16:50:02;4.57;;;2.80;;
14520;SDS011;7347;50.844;4.490;2023-07-09T16:52:29;7.38;;;2.65;;
14520;SDS011;7347;50.844;4.490;2023-07-09T16:54:57;5.72;;;3.17;;
14520;SDS011;7347;50.844;4.490;2023-07-09T16:57:25;5.70;;;2.85;;
14520;SDS011;7347;50.844;4.490;2023-07-09T16:59:54;6.72;;;3.10;;
14520;SDS011;7347;50.844;4.490;2023-07-09T17:02:26;5.78;;;2.92;;
14520;SDS011;7347;50.844;4.490;2023-07-09T17:04:54;7.53;;;3.28;;
14520;SDS011;7347;50.844;4.490;2023-07-09T17:07:23;7.78;;;3.17;;
14520;SDS011;7347;50.844;4.490;2023-07-09T17:09:51;6.68;;;3.60;;
14520;SDS011;7347;50.844;4.490;2023-07-09T17:12:20;7.65;;;4.28;;
14520;SDS011;7347;50.844;4.490;2023-07-09T17:14:47;6.90;;;4.15;;
14520;SDS011;7347;50.844;4.490;2023-07-09T17:17:15;6.95;;;3.63;;
14520;SDS011;7347;50.844;4.490;2023-07-09T17:19:43;9.02;;;3.70;;
14520;SDS011;7347;50.844;4.490;2023-07-09T17:22:16;5.70;;;3.25;;
14520;SDS011;7347;50.844;4.490;2023-07-09T17:24:44;8.02;;;3.58;;
14520;SDS011;7347;50.844;4.490;2023-07-09T17:27:12;6.70;;;4.15;;
14520;SDS011;7347;50.844;4.490;2023-07-09T17:29:41;7.13;;;3.40;;
14520;SDS011;7347;50.844;4.490;2023-07-09T17:32:09;6.75;;;3.42;;
14520;SDS011;7347;50.844;4.490;2023-07-09T17:34:36;9.10;;;4.18;;
14520;SDS011;7347;50.844;4.490;2023-07-09T17:37:04;5.40;;;2.50;;
14520;SDS011;7347;50.844;4.490;2023-07-09T17:39:35;5.03;;;2.47;;
14520;SDS011;7347;50.844;4.490;2023-07-09T17:42:04;3.03;;;2.20;;
14520;SDS011;7347;50.844;4.490;2023-07-09T17:44:31;4.00;;;2.15;;
14520;SDS011;7347;50.844;4.490;2023-07-09T17:46:59;3.67;;;2.30;;
14520;SDS011;7347;50.844;4.490;2023-07-09T17:49:27;3.92;;;2.25;;
14520;SDS011;7347;50.844;4.490;2023-07-09T17:51:57;4.32;;;2.63;;
14520;SDS011;7347;50.844;4.490;2023-07-09T17:54:24;3.33;;;1.95;;
14520;SDS011;7347;50.844;4.490;2023-07-09T17:56:53;6.10;;;2.42;;
14520;SDS011;7347;50.844;4.490;2023-07-09T17:59:23;7.78;;;2.28;;
14520;SDS011;7347;50.844;4.490;2023-07-09T18:01:54;3.65;;;1.88;;
14520;SDS011;7347;50.844;4.490;2023-07-09T18:04:28;5.85;;;1.73;;
14520;SDS011;7347;50.844;4.490;2023-07-09T18:06:55;3.10;;;1.85;;
14520;SDS011;7347;50.844;4.490;2023-07-09T18:09:24;2.20;;;1.52;;
14520;SDS011;7347;50.844;4.490;2023-07-09T18:11:51;2.72;;;1.38;;
14520;SDS011;7347;50.844;4.490;2023-07-09T18:14:20;3.55;;;1.67;;
14520;SDS011;7347;50.844;4.490;2023-07-09T18:16:51;5.75;;;1.50;;
14520;SDS011;7347;50.844;4.490;2023-07-09T18:19:22;3.40;;;1.40;;
14520;SDS011;7347;50.844;4.490;2023-07-09T18:21:52;3.22;;;1.33;;
14520;SDS011;7347;50.844;4.490;2023-07-09T18:24:23;3.65;;;1.45;;
14520;SDS011;7347;50.844;4.490;2023-07-09T18:26:50;2.22;;;1.10;;
14520;SDS011;7347;50.844;4.490;2023-07-09T18:29:23;2.50;;;1.00;;
14520;SDS011;7347;50.844;4.490;2023-07-09T18:31:53;3.03;;;1.30;;
14520;SDS011;7347;50.844;4.490;2023-07-09T18:34:20;2.75;;;1.02;;
14520;SDS011;7347;50.844;4.490;2023-07-09T18:36:47;3.72;;;1.30;;
14520;SDS011;7347;50.844;4.490;2023-07-09T18:39:15;2.15;;;1.10;;
14520;SDS011;7347;50.844;4.490;2023-07-09T18:41:43;1.85;;;0.73;;
14520;SDS011;7347;50.844;4.490;2023-07-09T18:44:17;3.85;;;1.20;;
14520;SDS011;7347;50.844;4.490;2023-07-09T18:46:46;2.30;;;0.80;;
14520;SDS011;7347;50.844;4.490;2023-07-09T18:49:13;1.60;;;0.80;;
14520;SDS011;7347;50.844;4.490;2023-07-09T18:51:40;2.67;;;0.80;;
14520;SDS011;7347;50.844;4.490;2023-07-09T18:54:10;2.00;;;0.82;;
14520;SDS011;7347;50.844;4.490;2023-07-09T18:56:40;2.40;;;1.23;;
14520;SDS011;7347;50.844;4.490;2023-07-09T18:59:08;2.53;;;0.90;;
14520;SDS011;7347;50.844;4.490;2023-07-09T19:01:37;1.60;;;0.82;;
14520;SDS011;7347;50.844;4.490;2023-07-09T19:04:09;2.55;;;0.80;;
14520;SDS011;7347;50.844;4.490;2023-07-09T19:06:39;3.03;;;1.10;;
14520;SDS011;7347;50.844;4.490;2023-07-09T19:09:08;3.45;;;1.02;;
14520;SDS011;7347;50.844;4.490;2023-07-09T19:11:42;3.25;;;1.20;;
14520;SDS011;7347;50.844;4.490;2023-07-09T19:14:09;2.28;;;0.90;;
14520;SDS011;7347;50.844;4.490;2023-07-09T19:16:36;2.55;;;1.00;;
14520;SDS011;7347;50.844;4.490;2023-07-09T19:19:03;6.38;;;1.08;;
14520;SDS011;7347;50.844;4.490;2023-07-09T19:21:32;3.03;;;1.05;;
14520;SDS011;7347;50.844;4.490;2023-07-09T19:23:59;2.25;;;0.90;;
14520;SDS011;7347;50.844;4.490;2023-07-09T19:26:27;3.83;;;1.25;;
14520;SDS011;7347;50.844;4.490;2023-07-09T19:28:55;6.53;;;1.02;;
14520;SDS011;7347;50.844;4.490;2023-07-09T19:31:22;3.53;;;1.13;;
14520;SDS011;7347;50.844;4.490;2023-07-09T19:33:49;2.83;;;1.33;;
14520;SDS011;7347;50.844;4.490;2023-07-09T19:36:19;5.05;;;1.48;;
14520;SDS011;7347;50.844;4.490;2023-07-09T19:38:49;2.28;;;1.10;;
14520;SDS011;7347;50.844;4.490;2023-07-09T19:41:16;2.85;;;1.15;;
14520;SDS011;7347;50.844;4.490;2023-07-09T19:43:44;2.42;;;1.15;;
14520;SDS011;7347;50.844;4.490;2023-07-09T19:46:15;3.05;;;1.10;;
14520;SDS011;7347;50.844;4.490;2023-07-09T19:48:44;2.50;;;1.00;;
14520;SDS011;7347;50.844;4.490;2023-07-09T19:51:11;2.05;;;1.13;;
14520;SDS011;7347;50.844;4.490;2023-07-09T19:53:39;1.80;;;0.93;;
14520;SDS011;7347;50.844;4.490;2023-07-09T19:56:05;5.10;;;1.60;;
14520;SDS011;7347;50.844;4.490;2023-07-09T19:58:32;2.50;;;1.27;;
14520;SDS011;7347;50.844;4.490;2023-07-09T20:00:59;1.95;;;1.23;;
14520;SDS011;7347;50.844;4.490;2023-07-09T20:03:28;5.80;;;1.45;;
14520;SDS011;7347;50.844;4.490;2023-07-09T20:05:57;1.80;;;0.98;;
14520;SDS011;7347;50.844;4.490;2023-07-09T20:08:24;4.35;;;1.30;;
14520;SDS011;7347;50.844;4.490;2023-07-09T20:10:52;3.60;;;1.27;;
14520;SDS011;7347;50.844;4.490;2023-07-09T20:13:22;3.50;;;1.60;;
14520;SDS011;7347;50.844;4.490;2023-07-09T20:15:49;4.43;;;1.48;;
14520;SDS011;7347;50.844;4.490;2023-07-09T20:18:17;3.72;;;1.33;;
14520;SDS011;7347;50.844;4.490;2023-07-09T20:20:47;2.80;;;1.15;;
14520;SDS011;7347;50.844;4.490;2023-07-09T20:23:16;3.35;;;1.10;;
14520;SDS011;7347;50.844;4.490;2023-07-09T20:25:43;2.58;;;1.00;;
14520;SDS011;7347;50.844;4.490;2023-07-09T20:28:14;3.42;;;1.13;;
14520;SDS011;7347;50.844;4.490;2023-07-09T20:30:44;3.25;;;1.10;;
14520;SDS011;7347;50.844;4.490;2023-07-09T20:33:11;3.47;;;1.15;;
14520;SDS011;7347;50.844;4.490;2023-07-09T20:35:38;2.00;;;0.90;;
14520;SDS011;7347;50.844;4.490;2023-07-09T20:38:12;3.17;;;1.15;;
14520;SDS011;7347;50.844;4.490;2023-07-09T20:40:40;2.13;;;1.10;;
14520;SDS011;7347;50.844;4.490;2023-07-09T20:43:09;4.28;;;1.08;;
14520;SDS011;7347;50.844;4.490;2023-07-09T20:45:44;2.83;;;1.10;;
14520;SDS011;7347;50.844;4.490;2023-07-09T20:48:11;5.68;;;1.33;;
14520;SDS011;7347;50.844;4.490;2023-07-09T20:50:38;2.45;;;1.02;;
14520;SDS011;7347;50.844;4.490;2023-07-09T20:53:06;3.17;;;1.30;;
14520;SDS011;7347;50.844;4.490;2023-07-09T20:55:35;3.47;;;1.20;;
14520;SDS011;7347;50.844;4.490;2023-07-09T20:58:02;2.03;;;0.98;;
14520;SDS011;7347;50.844;4.490;2023-07-09T21:00:29;2.80;;;1.13;;
14520;SDS011;7347;50.844;4.490;2023-07-09T21:02:56;1.40;;;0.88;;
